This is the latest recevied weather packets stored in our database for station/object AB0TJ. If no packets are shown the sender has not sent any weather packets the latest 10 day(s).
| Time | Temp. | Humidity | Pressure | Rain* | Wind** | Luminosity | Snow |
|---|---|---|---|---|---|---|---|
| 1777424273 | 18.33° C | 16% | 1016.3 hPa | 0 mm | - | 93 W/m² | - |
| 1777423679 | 18.33° C | 16% | 1016.4 hPa | 0 mm | - | 114 W/m² | - |
| 1777410811 | 17.78° C | 26% | 1017.1 hPa | 0 mm | - | 307 W/m² | - |
| 1777410334 | 17.78° C | 25% | 1017.3 hPa | 0 mm | - | 801 W/m² | - |
| 1777408270 | 17.22° C | 28% | 1017.5 hPa | 0 mm | - | 790 W/m² | - |
| 1777407789 | 17.22° C | 28% | 1017.5 hPa | 0 mm | - | 805 W/m² | - |
| 1777406719 | 17.22° C | 29% | 1017.4 hPa | 0 mm | - | 821 W/m² | - |
| 1777406221 | 16.67° C | 32% | 1017.4 hPa | 0 mm | - | 831 W/m² | - |
| 1777404729 | 16.11° C | 33% | 1017.7 hPa | 0 mm | - | 832 W/m² | - |
| 1777403691 | 16.11° C | 37% | 1017.8 hPa | 0 mm | - | 817 W/m² | - |
| 1777400379 | 15° C | 40% | 1018.8 hPa | 0 mm | - | 905 W/m² | - |
| 1777399323 | 14.44° C | 45% | 1018.7 hPa | 0 mm | - | 789 W/m² | - |
| 1777397064 | 14.44° C | 41% | 1018.8 hPa | 0 mm | - | 356 W/m² | - |
| 1777395919 | 15.56° C | 41% | 1018.6 hPa | 0 mm | - | 573 W/m² | - |
| 1777394419 | 13.89° C | 46% | 1018.6 hPa | 0 mm | - | 442 W/m² | - |
| 1777392329 | 13.89° C | 48% | 1018.8 hPa | 0 mm | - | 519 W/m² | - |
| 1777390831 | 12.22° C | 57% | 1018.7 hPa | 0 mm | - | 305 W/m² | - |
| 1777387546 | 8.89° C | 71% | 1018 hPa | 0 mm | - | 250 W/m² | - |
| 1777386964 | 8.33° C | 71% | 1016.8 hPa | 0 mm | - | 105 W/m² | - |
| 1777386384 | 7.78° C | 70% | 1016.8 hPa | 0 mm | - | 70 W/m² | - |
| 1777385904 | 7.78° C | 77% | 1016.7 hPa | 0 mm | - | 185 W/m² | - |
| 1777385349 | 7.22° C | 78% | 1016.6 hPa | 0 mm | - | 89 W/m² | - |
| 1777382654 | 5.56° C | 86% | 1017.4 hPa | 0 mm | - | 53 W/m² | - |
| 1777381579 | 5° C | 86% | 1017.1 hPa | 0 mm | - | 26 W/m² | - |
| 1777379954 | 4.44° C | 85% | 1016.4 hPa | 0 mm | - | 9 W/m² | - |
* Rain latest hour (hover to see other rain measurements)
** Current wind speed in m/s (hover to see current wind gust speed)